Terminal Aerodrome Forecast
Issued by NWS

Home | Current Version | Previous Version | Text Only | Print | Product List | Glossary On
Versions: 1 2 3 4 5 6 7 8 9 10 11 12 13 14 15 16 17
000
FTUS43 KAPX 142300
TAFPLN
TAF
KPLN 142320Z 1500/1524 21005KT P6SM VCSH BKN040 BKN080
     FM151200 27005KT P6SM OVC030
     FM151800 31008KT P6SM OVC025=

USA.gov is the U.S. government's official web portal to all federal, state and local government web resources and services.